Time;durP1;ratioP1;P1;durP2;ratioP2;P2;SDS_P1;SDS_P2;PMS_P1;PMS_P2;Temp;Humidity;BMP_temperature;BMP_pressure;BME280_temperature;BME280_humidity;BME280_pressure;Samples;Min_cycle;Max_cycle;Signal;HPM_P1;HPM_P2
2023/05/05 00:00:05;;;;;;;5.63;5.07;;;;;;;11.67;65.75;100870.25;4995107;28;20620;-80
2023/05/05 00:02:33;;;;;;;5.40;4.90;;;;;;;11.63;66.15;100874.66;4996080;28;20270;-80
2023/05/05 00:04:59;;;;;;;5.50;5.00;;;;;;;11.57;66.95;100859.06;4995105;28;20227;-81
2023/05/05 00:07:25;;;;;;;6.03;5.07;;;;;;;11.59;67.44;100836.38;4994973;28;20262;-81
2023/05/05 00:09:52;;;;;;;4.70;4.37;;;;;;;11.43;67.98;100825.31;4995083;28;20220;-80
2023/05/05 00:12:18;;;;;;;5.33;4.83;;;;;;;11.41;68.10;100813.16;4994237;28;20231;-82
2023/05/05 00:14:44;;;;;;;5.07;4.57;;;;;;;11.42;68.52;100800.06;4993998;28;20258;-80
2023/05/05 00:17:11;;;;;;;5.23;4.83;;;;;;;11.39;68.91;100784.44;5012494;28;20270;-81
2023/05/05 00:19:38;;;;;;;5.43;4.93;;;;;;;11.41;68.12;100781.78;5014953;28;20237;-80
2023/05/05 00:22:05;;;;;;;7.83;5.67;;;;;;;11.38;67.72;100787.06;5014387;28;20334;-81
2023/05/05 00:24:32;;;;;;;4.70;4.23;;;;;;;11.28;68.05;100797.69;5014500;28;20936;-80
2023/05/05 00:26:58;;;;;;;5.33;4.87;;;;;;;11.29;67.85;100791.56;5014083;28;20226;-80
2023/05/05 00:29:24;;;;;;;4.73;4.43;;;;;;;11.31;68.20;100796.75;5014432;28;20640;-81
2023/05/05 00:31:51;;;;;;;5.90;4.77;;;;;;;11.27;68.13;100793.31;5014158;28;20230;-81
2023/05/05 00:34:17;;;;;;;4.97;4.57;;;;;;;11.27;68.29;100787.25;5014089;28;20199;-81
2023/05/05 00:36:45;;;;;;;5.33;4.83;;;;;;;11.20;68.86;100783.00;5014980;28;20256;-80
2023/05/05 00:39:12;;;;;;;5.30;4.90;;;;;;;11.08;69.10;100773.59;5013991;28;20259;-82
2023/05/05 00:41:38;;;;;;;5.33;4.93;;;;;;;11.03;68.87;100763.22;5015120;28;20265;-79
2023/05/05 00:44:04;;;;;;;5.57;5.13;;;;;;;11.00;68.49;100771.13;5013967;28;20222;-80
2023/05/05 00:46:33;;;;;;;5.57;5.10;;;;;;;11.02;67.09;100776.31;5009439;28;20644;-79
2023/05/05 00:49:00;;;;;;;5.80;5.30;;;;;;;11.02;66.71;100798.09;5014249;28;20211;-80
2023/05/05 00:51:28;;;;;;;6.27;5.03;;;;;;;11.08;66.40;100818.00;5014979;28;20227;-80
2023/05/05 00:53:56;;;;;;;5.90;5.30;;;;;;;11.07;66.50;100830.22;4984025;28;20204;-80
2023/05/05 00:56:26;;;;;;;6.70;6.07;;;;;;;11.03;66.12;100833.75;4973495;28;20251;-81
2023/05/05 00:58:53;;;;;;;6.13;5.43;;;;;;;10.99;65.65;100845.16;4974005;28;20738;-81
2023/05/05 01:01:19;;;;;;;7.43;5.13;;;;;;;10.93;66.19;100860.91;4973534;28;20256;-82
2023/05/05 01:03:45;;;;;;;6.10;5.60;;;;;;;11.00;65.28;100862.56;4972883;28;20232;-80
2023/05/05 01:06:25;;;;;;;5.53;5.03;;;;;;;10.99;65.16;100880.88;4974023;28;20209;-81
2023/05/05 01:09:04;;;;;;;8.87;5.80;;;;;;;11.00;65.12;100880.84;4973750;28;20204;-81
2023/05/05 01:11:35;;;;;;;5.77;5.13;;;;;;;10.92;65.22;100882.66;4973789;28;20627;-80
2023/05/05 01:14:12;;;;;;;6.30;5.70;;;;;;;10.93;65.13;100884.41;4974188;28;20255;-81
2023/05/05 01:16:45;;;;;;;5.63;5.17;;;;;;;10.97;64.81;100890.47;5006176;28;20214;-81
2023/05/05 01:19:29;;;;;;;5.53;5.03;;;;;;;10.98;64.56;100895.69;5013139;28;20272;-81
2023/05/05 01:21:59;;;;;;;6.00;5.50;;;;;;;10.96;64.89;100902.66;5012596;28;20234;-80
2023/05/05 01:24:45;;;;;;;7.17;5.63;;;;;;;10.92;65.15;100908.78;5012990;28;20230;-80
2023/05/05 01:27:38;;;;;;;5.87;5.27;;;;;;;10.89;65.07;100894.03;5012581;28;20241;-81
2023/05/05 01:30:15;;;;;;;6.37;5.63;;;;;;;10.90;64.63;100901.00;5014360;28;20589;-82
2023/05/05 01:32:48;;;;;;;6.00;5.43;;;;;;;10.88;65.17;100900.16;5014552;28;20234;-82
2023/05/05 01:35:19;;;;;;;5.30;4.80;;;;;;;10.84;65.59;100895.84;5014328;28;20226;-81
2023/05/05 01:37:50;;;;;;;5.67;5.03;;;;;;;10.87;65.54;100890.56;5014792;28;20674;-83
2023/05/05 01:40:21;;;;;;;5.90;5.40;;;;;;;10.86;65.36;100894.09;5016766;28;20210;-81
2023/05/05 01:42:50;;;;;;;5.17;4.77;;;;;;;10.87;64.96;100887.97;5017996;28;20230;-83
2023/05/05 01:45:19;;;;;;;6.17;5.60;;;;;;;10.85;65.29;100888.88;5013445;28;20264;-82
2023/05/05 01:47:48;;;;;;;5.53;5.13;;;;;;;10.83;65.10;100890.66;5018339;28;20234;-81
2023/05/05 01:50:15;;;;;;;5.70;5.23;;;;;;;10.82;65.69;100892.41;5018472;28;20215;-80
2023/05/05 01:52:42;;;;;;;6.30;5.70;;;;;;;10.82;65.78;100883.69;5017995;28;20281;-81
2023/05/05 01:55:10;;;;;;;5.90;5.40;;;;;;;10.81;65.34;100880.22;5018896;28;20257;-83
2023/05/05 01:57:39;;;;;;;7.37;5.37;;;;;;;10.79;65.67;100884.59;5018064;28;20557;-83
2023/05/05 02:00:08;;;;;;;5.80;5.20;;;;;;;10.79;65.94;100873.28;5018377;28;20207;-82
2023/05/05 02:02:37;;;;;;;5.40;4.87;;;;;;;10.75;65.79;100876.81;5018242;28;20601;-81
2023/05/05 02:05:06;;;;;;;5.50;5.07;;;;;;;10.72;65.63;100870.75;5018642;28;20231;-83
2023/05/05 02:07:34;;;;;;;6.27;5.67;;;;;;;10.71;66.02;100871.63;5018038;28;20685;-83
2023/05/05 02:10:02;;;;;;;6.60;6.00;;;;;;;10.70;65.95;100859.47;5018382;28;20207;-82
2023/05/05 02:12:30;;;;;;;6.33;5.73;;;;;;;10.68;66.27;100857.75;5017888;28;20318;-81
2023/05/05 02:15:00;;;;;;;5.83;5.23;;;;;;;10.63;66.48;100849.97;5013586;28;20206;-83
2023/05/05 02:17:29;;;;;;;6.13;5.53;;;;;;;10.60;66.21;100842.16;5010525;28;20210;-83
2023/05/05 02:19:57;;;;;;;6.10;5.60;;;;;;;10.60;66.43;100843.94;5018133;28;20207;-82
2023/05/05 02:22:25;;;;;;;6.10;5.60;;;;;;;10.60;66.35;100841.31;5017656;28;20230;-83
2023/05/05 02:24:52;;;;;;;6.13;5.63;;;;;;;10.55;66.81;100828.34;5017851;28;20218;-82
2023/05/05 02:27:21;;;;;;;5.80;5.40;;;;;;;10.55;67.04;100819.66;5018153;28;20693;-81
2023/05/05 02:29:50;;;;;;;6.17;5.67;;;;;;;10.49;66.97;100823.19;5018160;28;20203;-81
2023/05/05 02:32:20;;;;;;;6.93;5.87;;;;;;;10.48;67.33;100814.47;5018300;28;20226;-81
2023/05/05 02:34:47;;;;;;;9.07;6.27;;;;;;;10.46;67.39;100812.78;5018171;28;20198;-83
2023/05/05 02:37:19;;;;;;;6.23;5.70;;;;;;;10.46;67.54;100808.41;5018391;28;20206;-80
2023/05/05 02:39:57;;;;;;;6.53;5.97;;;;;;;10.45;67.64;100800.63;5017839;28;20214;-82
2023/05/05 02:42:27;;;;;;;6.50;5.90;;;;;;;10.44;67.92;100797.13;5017725;28;20238;-82
2023/05/05 02:44:57;;;;;;;6.20;5.60;;;;;;;10.43;67.80;100791.97;5013414;28;20242;-83
2023/05/05 02:47:28;;;;;;;5.87;5.47;;;;;;;10.39;68.16;100779.84;5002089;28;20261;-81
2023/05/05 02:49:54;;;;;;;6.00;5.50;;;;;;;10.40;67.99;100773.72;5017319;28;20211;-82
2023/05/05 02:52:21;;;;;;;9.73;6.70;;;;;;;10.38;68.09;100780.69;5017699;28;20230;-81
2023/05/05 02:54:48;;;;;;;7.33;6.00;;;;;;;10.37;68.34;100779.00;5018100;28;20203;-80
2023/05/05 02:57:19;;;;;;;5.57;5.03;;;;;;;10.36;68.25;100767.66;5017690;28;20215;-80
2023/05/05 02:59:52;;;;;;;7.47;6.10;;;;;;;10.32;68.51;100768.59;5017652;28;20257;-81
2023/05/05 03:02:24;;;;;;;10.37;6.60;;;;;;;10.28;68.65;100759.91;5018016;28;20219;-81
2023/05/05 03:04:56;;;;;;;6.33;5.73;;;;;;;10.24;69.14;100750.38;5017581;28;20293;-83
2023/05/05 03:07:27;;;;;;;5.73;5.23;;;;;;;10.24;68.99;100742.56;5017941;28;20199;-82
2023/05/05 03:10:03;;;;;;;7.10;6.40;;;;;;;10.23;68.91;100742.59;5017866;28;20242;-82
2023/05/05 03:12:37;;;;;;;6.70;6.10;;;;;;;10.22;69.18;100744.31;5017719;28;20258;-83
2023/05/05 03:15:05;;;;;;;6.30;5.70;;;;;;;10.17;69.42;100725.28;5012646;28;20264;-82
2023/05/05 03:17:33;;;;;;;7.73;5.77;;;;;;;10.10;69.80;100721.00;5013425;28;20212;-83
2023/05/05 03:20:00;;;;;;;6.43;5.83;;;;;;;10.05;69.98;100714.97;4998158;28;20294;-82
2023/05/05 03:22:27;;;;;;;5.77;5.30;;;;;;;10.06;70.15;100703.66;4997774;28;20219;-83
2023/05/05 03:24:53;;;;;;;7.60;6.87;;;;;;;10.06;69.97;100703.66;4997851;28;20250;-81
2023/05/05 03:27:21;;;;;;;6.70;6.10;;;;;;;10.01;70.43;100713.28;4998205;28;20212;-81
2023/05/05 03:29:47;;;;;;;7.23;5.80;;;;;;;9.94;70.81;100700.31;4997599;28;20211;-82
2023/05/05 03:32:14;;;;;;;6.90;6.40;;;;;;;9.92;71.30;100683.84;4996896;28;20315;-82
2023/05/05 03:34:40;;;;;;;6.13;5.70;;;;;;;9.94;70.97;100682.06;4997157;28;20242;-80
2023/05/05 03:37:06;;;;;;;8.63;5.60;;;;;;;9.94;71.14;100683.81;4998206;28;20207;-82
2023/05/05 03:39:33;;;;;;;6.60;6.00;;;;;;;9.93;71.22;100672.53;4997873;28;20210;-81
2023/05/05 03:41:59;;;;;;;6.67;6.13;;;;;;;9.95;71.15;100675.13;4997608;28;20244;-80
2023/05/05 03:44:27;;;;;;;6.70;6.13;;;;;;;9.95;70.81;100669.91;4997427;28;20263;-81
2023/05/05 03:46:53;;;;;;;7.23;6.60;;;;;;;9.94;70.75;100665.56;5013304;28;20261;-82
2023/05/05 03:49:19;;;;;;;6.37;5.97;;;;;;;9.88;71.34;100661.28;5016736;28;20206;-83
2023/05/05 03:51:46;;;;;;;6.63;6.13;;;;;;;9.87;71.04;100663.91;5017039;28;20233;-83
2023/05/05 03:54:13;;;;;;;7.20;6.50;;;;;;;9.86;71.17;100657.84;5016864;28;20214;-83
2023/05/05 03:56:39;;;;;;;6.87;6.37;;;;;;;9.80;71.74;100657.91;5016902;28;20206;-83
2023/05/05 03:59:07;;;;;;;9.23;6.23;;;;;;;9.79;71.50;100657.94;5016666;28;20238;-82
2023/05/05 04:01:35;;;;;;;8.77;6.80;;;;;;;9.78;71.31;100666.66;5016378;28;20230;-82
2023/05/05 04:04:01;;;;;;;6.83;6.23;;;;;;;9.78;71.47;100671.84;5016507;28;20207;-83
2023/05/05 04:06:28;;;;;;;6.93;5.60;;;;;;;9.74;71.94;100664.06;5016949;28;20673;-83
2023/05/05 04:08:54;;;;;;;6.67;6.13;;;;;;;9.74;71.48;100671.88;5016973;28;20831;-82
2023/05/05 04:11:21;;;;;;;6.60;6.00;;;;;;;9.69;72.18;100667.59;5016790;28;20249;-82
2023/05/05 04:13:48;;;;;;;7.60;6.90;;;;;;;9.70;71.59;100667.59;5017077;28;20214;-81
2023/05/05 04:16:15;;;;;;;6.60;6.10;;;;;;;9.71;71.39;100658.91;5010428;28;20289;-81
2023/05/05 04:18:42;;;;;;;7.10;5.93;;;;;;;9.71;71.46;100658.00;5016668;28;20249;-82
2023/05/05 04:21:09;;;;;;;7.40;6.70;;;;;;;9.69;71.06;100665.88;5016362;28;20254;-82
2023/05/05 04:23:35;;;;;;;14.67;6.50;;;;;;;9.66;71.75;100668.50;5016003;28;20220;-84
2023/05/05 04:26:02;;;;;;;7.23;6.63;;;;;;;9.63;71.96;100668.56;5016453;28;20226;-84
2023/05/05 04:28:28;;;;;;;6.93;6.33;;;;;;;9.61;72.24;100680.72;5016504;28;20206;-84
2023/05/05 04:30:54;;;;;;;7.43;6.73;;;;;;;9.59;72.24;100684.22;5015955;28;20231;-83
2023/05/05 04:33:21;;;;;;;6.53;5.93;;;;;;;9.58;72.13;100672.94;5016569;28;20207;-83
2023/05/05 04:35:48;;;;;;;12.43;7.57;;;;;;;9.62;71.86;100679.84;5016711;28;20268;-83
2023/05/05 04:38:15;;;;;;;7.20;6.60;;;;;;;9.64;71.66;100672.03;5030581;28;20210;-82
2023/05/05 04:40:41;;;;;;;6.97;6.27;;;;;;;9.67;71.25;100670.25;5034623;28;20194;-82
2023/05/05 04:43:07;;;;;;;8.87;6.07;;;;;;;9.70;71.32;100677.16;5037586;22;20733;-80
2023/05/05 04:45:34;;;;;;;6.43;5.93;;;;;;;9.72;72.06;100670.19;5013478;28;20234;-80
2023/05/05 04:48:00;;;;;;;6.30;5.80;;;;;;;9.78;71.39;100684.91;5013815;28;20203;-80
2023/05/05 04:50:27;;;;;;;7.17;6.47;;;;;;;9.81;71.94;100683.13;5013892;28;20218;-80
2023/05/05 04:52:55;;;;;;;6.97;6.03;;;;;;;9.87;71.21;100696.09;5013853;28;20227;-80
2023/05/05 04:55:21;;;;;;;6.43;5.93;;;;;;;9.94;70.96;100697.72;5013558;28;20203;-80
2023/05/05 04:57:47;;;;;;;8.37;6.37;;;;;;;10.01;71.06;100713.28;5014209;28;20273;-80
2023/05/05 05:00:14;;;;;;;6.27;5.77;;;;;;;10.06;70.99;100704.53;5013671;28;20206;-80
2023/05/05 05:02:41;;;;;;;6.87;5.90;;;;;;;10.15;70.71;100700.97;5014383;28;20223;-83
2023/05/05 05:05:08;;;;;;;8.10;6.00;;;;;;;10.25;70.69;100710.38;5014343;28;20226;-80
2023/05/05 05:07:34;;;;;;;6.57;6.00;;;;;;;10.34;71.32;100704.19;5014061;28;20210;-81
2023/05/05 05:10:02;;;;;;;7.07;6.40;;;;;;;10.43;70.60;100711.91;5013770;28;20257;-80
2023/05/05 05:12:29;;;;;;;7.23;6.53;;;;;;;10.49;70.72;100714.44;5014236;28;20656;-80
2023/05/05 05:14:55;;;;;;;7.60;6.80;;;;;;;10.58;70.96;100715.19;5017295;28;20215;-80
2023/05/05 05:17:22;;;;;;;6.23;5.70;;;;;;;10.63;70.60;100715.97;5017243;28;20211;-80
2023/05/05 05:19:49;;;;;;;6.40;5.90;;;;;;;10.68;70.40;100719.38;5018316;28;20245;-80
2023/05/05 05:22:15;;;;;;;6.47;5.90;;;;;;;10.72;70.03;100735.00;5017214;28;20288;-80
2023/05/05 05:24:42;;;;;;;6.73;6.23;;;;;;;10.76;69.77;100746.22;5017130;28;20207;-80
2023/05/05 05:27:10;;;;;;;7.07;6.47;;;;;;;10.79;69.68;100753.16;5017169;28;20203;-81
2023/05/05 05:29:36;;;;;;;6.70;6.10;;;;;;;10.80;69.54;100747.94;5017175;28;20218;-80
2023/05/05 05:32:02;;;;;;;6.97;6.37;;;;;;;10.82;69.54;100759.22;5016979;28;20230;-80
2023/05/05 05:34:29;;;;;;;7.23;6.47;;;;;;;10.80;69.52;100758.38;5017420;28;20218;-80
2023/05/05 05:36:55;;;;;;;7.47;6.83;;;;;;;10.85;69.97;100747.84;5016468;28;20209;-80
2023/05/05 05:39:22;;;;;;;7.13;6.47;;;;;;;10.88;69.85;100742.56;5016494;28;20207;-80
2023/05/05 05:41:48;;;;;;;8.13;7.33;;;;;;;10.88;70.53;100745.19;5016304;28;20374;-80
2023/05/05 05:44:16;;;;;;;7.37;6.77;;;;;;;10.91;70.83;100737.31;5017237;28;20211;-80
2023/05/05 05:46:42;;;;;;;7.57;6.97;;;;;;;10.97;71.36;100724.16;5016662;28;20276;-80
2023/05/05 05:49:08;;;;;;;8.57;6.60;;;;;;;11.02;71.58;100721.47;5016792;28;20207;-80
2023/05/05 05:51:35;;;;;;;7.27;6.67;;;;;;;11.10;71.32;100725.69;5015864;28;20634;-80
2023/05/05 05:54:01;;;;;;;7.17;6.47;;;;;;;11.15;71.17;100711.69;5016344;28;20265;-80
2023/05/05 05:56:27;;;;;;;7.17;6.57;;;;;;;11.23;70.20;100718.50;5016163;28;20686;-80
2023/05/05 05:58:54;;;;;;;7.30;6.70;;;;;;;11.30;69.57;100746.25;5016957;28;20637;-80
2023/05/05 06:01:22;;;;;;;6.83;6.33;;;;;;;11.40;68.93;100759.19;5017033;28;20269;-80
2023/05/05 06:03:57;;;;;;;5.80;5.30;;;;;;;11.49;68.75;100778.16;5017730;28;20207;-80
2023/05/05 06:06:23;;;;;;;6.37;5.80;;;;;;;11.63;68.16;100795.34;5017225;28;20238;-82
2023/05/05 06:08:50;;;;;;;6.80;6.10;;;;;;;11.77;67.24;100797.72;5017512;28;20211;-81
2023/05/05 06:11:16;;;;;;;6.80;6.27;;;;;;;11.87;66.37;100831.56;5016915;28;20238;-80
2023/05/05 06:13:43;;;;;;;6.00;5.57;;;;;;;12.00;66.10;100866.22;5017923;28;20632;-80
2023/05/05 06:16:09;;;;;;;6.97;6.33;;;;;;;12.11;66.21;100879.97;5016916;28;20199;-79
2023/05/05 06:18:37;;;;;;;7.93;6.40;;;;;;;12.21;66.00;100880.69;5011099;28;20207;-81
2023/05/05 06:21:03;;;;;;;8.53;6.83;;;;;;;12.29;65.89;100898.88;5008896;28;20201;-81
2023/05/05 06:23:29;;;;;;;6.60;6.00;;;;;;;12.37;65.61;100906.53;5004179;28;20202;-79
2023/05/05 06:25:56;;;;;;;9.43;6.30;;;;;;;12.34;64.95;100933.66;4997533;28;20233;-80
2023/05/05 06:28:22;;;;;;;6.67;6.03;;;;;;;12.39;65.25;100938.78;4998614;28;20245;-81
2023/05/05 06:30:48;;;;;;;7.63;6.80;;;;;;;12.41;65.52;100937.91;4999555;28;20216;-80
2023/05/05 06:33:15;;;;;;;7.37;6.73;;;;;;;12.43;65.83;100940.50;4998881;28;20281;-80
2023/05/05 06:35:43;;;;;;;7.73;6.30;;;;;;;12.49;65.71;100933.38;4998861;28;20690;-82
2023/05/05 06:38:09;;;;;;;6.77;6.20;;;;;;;12.54;65.77;100925.41;4998330;28;20343;-78
2023/05/05 06:40:35;;;;;;;6.73;6.10;;;;;;;12.58;65.95;100928.84;4999086;28;20693;-81
2023/05/05 06:43:02;;;;;;;8.47;6.00;;;;;;;12.65;65.69;100922.63;4999044;28;20789;-82
2023/05/05 06:45:29;;;;;;;8.90;6.20;;;;;;;12.66;65.05;100919.09;5003061;28;20301;-81
2023/05/05 06:47:56;;;;;;;6.47;6.00;;;;;;;12.66;65.03;100930.41;5017854;28;20210;-82
2023/05/05 06:50:22;;;;;;;7.37;6.87;;;;;;;12.64;65.49;100947.91;5010129;28;20215;-80
2023/05/05 06:52:51;;;;;;;6.57;6.07;;;;;;;12.66;65.28;100924.31;5007508;28;20278;-80
2023/05/05 06:55:18;;;;;;;8.70;6.30;;;;;;;12.63;65.25;100921.78;5011832;28;20197;-81
2023/05/05 06:57:44;;;;;;;7.67;6.37;;;;;;;12.60;65.11;100927.91;5017591;28;20208;-81
2023/05/05 07:00:13;;;;;;;9.07;6.07;;;;;;;12.60;65.66;100920.06;5017401;28;20203;-79
2023/05/05 07:02:40;;;;;;;6.20;5.60;;;;;;;12.56;65.82;100925.41;5016747;28;20253;-81
2023/05/05 07:05:07;;;;;;;6.83;6.23;;;;;;;12.56;67.36;100915.78;5017548;28;20282;-80
2023/05/05 07:07:33;;;;;;;10.60;6.40;;;;;;;12.64;66.62;100894.69;5018204;28;20270;-80
2023/05/05 07:10:01;;;;;;;6.90;6.30;;;;;;;12.69;66.02;100896.31;5018060;28;20210;-81
2023/05/05 07:12:29;;;;;;;6.60;6.03;;;;;;;12.75;66.15;100907.56;5016933;28;20282;-79
2023/05/05 07:14:56;;;;;;;7.20;6.30;;;;;;;12.80;65.69;100901.31;5016861;28;20257;-81
2023/05/05 07:17:22;;;;;;;6.40;5.80;;;;;;;12.87;65.51;100904.69;5016168;28;20218;-79
2023/05/05 07:19:50;;;;;;;7.10;6.33;;;;;;;12.92;65.28;100915.94;5016462;28;20204;-79
2023/05/05 07:22:16;;;;;;;6.73;6.10;;;;;;;12.99;64.96;100914.06;5015992;28;20229;-81
2023/05/05 07:24:42;;;;;;;6.13;5.60;;;;;;;13.03;65.79;100913.94;5017216;28;20220;-79
2023/05/05 07:27:10;;;;;;;7.13;6.43;;;;;;;13.15;65.59;100918.06;5017706;28;20278;-81
2023/05/05 07:29:36;;;;;;;7.07;6.37;;;;;;;13.24;65.08;100915.25;5016942;28;20266;-81
2023/05/05 07:32:03;;;;;;;7.00;6.40;;;;;;;13.31;65.01;100913.38;5016646;28;20260;-80
2023/05/05 07:34:31;;;;;;;7.10;6.53;;;;;;;13.43;65.36;100907.84;5016841;28;20561;-80
2023/05/05 07:36:58;;;;;;;6.47;5.97;;;;;;;13.56;64.26;100928.53;5015945;28;20207;-82
2023/05/05 07:39:24;;;;;;;7.90;6.07;;;;;;;13.71;64.39;100925.56;5017587;28;20239;-80
2023/05/05 07:41:50;;;;;;;6.37;5.77;;;;;;;13.83;64.14;100938.38;5016900;28;20233;-81
2023/05/05 07:44:18;;;;;;;7.10;6.50;;;;;;;14.01;63.85;100937.09;5018041;28;20206;-81
2023/05/05 07:47:15;;;;;;;6.60;6.00;;;;;;;14.17;62.84;100952.41;5017130;28;20280;-81
2023/05/05 07:49:45;;;;;;;6.30;5.80;;;;;;;14.27;63.23;100985.41;4997445;28;20824;-82
2023/05/05 07:52:11;;;;;;;6.93;6.30;;;;;;;14.37;62.26;100978.16;4998516;28;20279;-81
2023/05/05 07:54:38;;;;;;;6.97;6.27;;;;;;;14.49;62.36;101006.75;4998697;28;20704;-81
2023/05/05 07:57:04;;;;;;;7.23;6.63;;;;;;;14.56;62.56;101005.72;4998705;28;20211;-82
2023/05/05 07:59:32;;;;;;;8.20;6.43;;;;;;;14.67;63.10;101016.81;4998210;28;20211;-81
2023/05/05 08:01:59;;;;;;;6.23;5.73;;;;;;;14.76;62.66;101005.19;4997386;28;20717;-83
2023/05/05 08:04:25;;;;;;;7.33;6.10;;;;;;;14.89;62.19;101018.88;4997033;28;20205;-80
2023/05/05 08:06:51;;;;;;;6.80;6.20;;;;;;;15.05;60.84;101027.19;4996265;28;20697;-80
2023/05/05 08:09:18;;;;;;;7.00;6.50;;;;;;;15.13;61.09;101053.25;4996847;28;20742;-81
2023/05/05 08:11:44;;;;;;;6.50;5.90;;;;;;;15.24;60.28;101065.22;4996259;28;20288;-81
2023/05/05 08:14:10;;;;;;;6.60;5.97;;;;;;;15.34;59.69;101089.50;5005466;28;20207;-79
2023/05/05 08:16:38;;;;;;;6.77;6.27;;;;;;;15.43;60.65;101106.78;5009376;28;20224;-80
2023/05/05 08:19:05;;;;;;;7.43;6.60;;;;;;;15.58;59.48;101116.88;5012571;28;20488;-80
2023/05/05 08:21:31;;;;;;;6.97;6.27;;;;;;;15.70;59.20;101134.06;5015902;28;20778;-80
2023/05/05 08:24:01;;;;;;;6.93;6.23;;;;;;;15.78;59.31;101140.00;5016308;28;20234;-81
2023/05/05 08:26:27;;;;;;;6.93;6.03;;;;;;;15.83;58.50;101155.66;5016846;28;20230;-80
2023/05/05 08:28:59;;;;;;;6.10;5.60;;;;;;;15.83;58.33;101164.41;5031836;28;20213;-82
2023/05/05 08:31:26;;;;;;;6.40;5.90;;;;;;;15.88;58.34;101169.56;5037033;28;20236;-81
2023/05/05 08:33:53;;;;;;;6.23;5.73;;;;;;;15.82;58.52;101177.63;5036099;28;20213;-82
2023/05/05 08:36:32;;;;;;;12.27;6.57;;;;;;;15.77;57.63;101201.44;5035353;28;20217;-81
2023/05/05 08:39:00;;;;;;;6.90;6.30;;;;;;;15.66;57.93;101228.03;5036002;28;20728;-81
2023/05/05 08:41:27;;;;;;;7.30;6.50;;;;;;;15.66;58.59;101224.56;5035336;28;20703;-82
2023/05/05 08:43:53;;;;;;;5.90;5.37;;;;;;;15.64;61.42;101216.69;5037621;28;20684;-82
2023/05/05 08:46:20;;;;;;;6.23;5.63;;;;;;;15.64;60.77;101150.03;5024841;28;20315;-81
2023/05/05 08:48:48;;;;;;;6.40;5.90;;;;;;;15.65;61.10;101143.84;5019568;28;20214;-81
2023/05/05 08:51:19;;;;;;;7.00;6.30;;;;;;;15.64;59.66;101137.72;5020652;28;20251;-81
2023/05/05 08:53:52;;;;;;;6.63;6.13;;;;;;;15.67;58.98;101142.03;5021163;28;20252;-82
2023/05/05 08:56:20;;;;;;;6.67;6.07;;;;;;;15.73;59.93;101156.84;5021278;28;20213;-82
2023/05/05 08:58:47;;;;;;;7.53;6.80;;;;;;;15.80;59.85;101151.34;5019932;28;20220;-82
2023/05/05 09:01:15;;;;;;;7.70;7.00;;;;;;;15.88;59.24;101149.34;5019657;28;20220;-82
2023/05/05 09:03:45;;;;;;;9.07;7.43;;;;;;;15.99;59.39;101159.53;5021525;28;20214;-82
2023/05/05 09:06:11;;;;;;;7.10;6.50;;;;;;;16.08;57.81;101176.88;5023003;28;20235;-84
2023/05/05 09:08:40;;;;;;;7.33;6.33;;;;;;;16.20;58.44;101199.34;5022437;28;20206;-81
2023/05/05 09:13:49;;;;;;;7.33;6.73;;;;;;;16.40;60.41;101153.94;5001814;28;20312;-81
2023/05/05 09:16:16;;;;;;;7.97;7.27;;;;;;;16.47;59.96;101134.34;5020517;28;20201;-83
2023/05/05 09:18:44;;;;;;;8.27;7.53;;;;;;;16.51;61.76;101109.66;5033507;28;20217;-83
2023/05/05 09:21:20;;;;;;;8.53;7.73;;;;;;;16.54;61.93;101087.59;5040280;28;20645;-81
2023/05/05 09:24:07;;;;;;;7.67;6.97;;;;;;;16.55;59.96;101070.84;5041261;28;20209;-81
2023/05/05 09:26:34;;;;;;;8.47;7.20;;;;;;;16.56;59.75;101098.94;5045018;28;20236;-83
2023/05/05 09:29:01;;;;;;;9.70;7.63;;;;;;;16.64;61.33;101089.00;5042610;28;20201;-82
2023/05/05 09:31:28;;;;;;;9.13;7.63;;;;;;;16.64;61.08;101076.69;5043959;28;20234;-82
2023/05/05 09:33:55;;;;;;;8.37;7.67;;;;;;;16.59;61.34;101062.81;5047162;28;20209;-81
2023/05/05 09:36:40;;;;;;;8.13;7.20;;;;;;;16.56;60.58;101051.50;5041370;28;20209;-80
2023/05/05 09:39:08;;;;;;;12.13;7.77;;;;;;;16.47;60.31;101061.44;5042487;28;20219;-80
2023/05/05 09:41:38;;;;;;;7.40;6.70;;;;;;;16.43;60.39;101070.38;5044705;28;20267;-82
2023/05/05 09:44:05;;;;;;;11.80;7.13;;;;;;;16.40;60.96;101073.09;5047460;28;20248;-81
2023/05/05 09:46:32;;;;;;;7.97;7.13;;;;;;;16.43;63.13;101073.00;5035054;28;20257;-81
2023/05/05 09:49:11;;;;;;;10.27;8.50;;;;;;;16.48;64.93;100999.06;5020114;28;20280;-82
2023/05/05 09:51:38;;;;;;;9.70;7.73;;;;;;;16.54;64.78;100983.03;5018272;28;20794;-81
2023/05/05 09:54:04;;;;;;;8.30;7.60;;;;;;;16.59;63.92;100960.03;5018918;28;20260;-81
2023/05/05 09:56:40;;;;;;;10.07;8.23;;;;;;;16.60;63.56;100964.38;5018229;28;20677;-81
2023/05/05 09:59:09;;;;;;;12.80;9.67;;;;;;;16.52;63.27;100958.50;5017308;28;20206;-82
2023/05/05 10:01:36;;;;;;;12.73;10.13;;;;;;;16.53;63.96;100968.16;5018456;28;20231;-81
2023/05/05 10:04:02;;;;;;;11.03;9.87;;;;;;;16.55;64.18;100950.50;5018878;28;20203;-81
2023/05/05 10:06:39;;;;;;;14.40;10.80;;;;;;;16.57;64.16;100939.88;5018644;28;20231;-82
2023/05/05 10:09:06;;;;;;;11.87;10.07;;;;;;;16.57;63.41;100947.78;5018261;28;20233;-81
2023/05/05 10:11:34;;;;;;;12.33;11.23;;;;;;;16.62;63.67;100961.69;5015997;28;20222;-79
2023/05/05 10:14:03;;;;;;;13.83;11.80;;;;;;;16.66;63.77;100961.50;5016492;28;20211;-80
2023/05/05 10:16:31;;;;;;;15.17;12.07;;;;;;;16.69;63.63;100968.47;5014608;28;20206;-80
2023/05/05 10:19:01;;;;;;;13.33;11.93;;;;;;;16.73;63.49;100977.09;5016346;28;20202;-80
2023/05/05 10:21:33;;;;;;;13.00;11.87;;;;;;;16.80;64.48;100953.09;5016489;28;20229;-80
2023/05/05 10:24:06;;;;;;;12.90;11.60;;;;;;;16.91;64.76;100943.97;5018164;28;20217;-80
2023/05/05 10:26:38;;;;;;;12.77;11.53;;;;;;;17.00;63.69;100957.66;5018277;28;20289;-81
2023/05/05 10:29:11;;;;;;;10.73;9.83;;;;;;;17.02;62.83;100999.81;5017515;28;20214;-80
2023/05/05 10:31:47;;;;;;;10.10;9.10;;;;;;;17.09;62.05;101025.06;5017300;28;20222;-81
2023/05/05 10:34:20;;;;;;;10.63;9.50;;;;;;;17.09;61.89;101043.53;5017323;28;20297;-81
2023/05/05 10:36:48;;;;;;;12.57;9.53;;;;;;;17.12;62.40;101042.53;5016299;28;20211;-81
2023/05/05 10:39:18;;;;;;;10.47;9.37;;;;;;;17.07;64.28;101017.19;5017420;28;20209;-81
2023/05/05 10:41:46;;;;;;;9.90;9.00;;;;;;;17.13;64.99;101002.06;5039791;23;20239;-81
2023/05/05 10:44:15;;;;;;;9.90;9.00;;;;;;;17.19;66.18;100971.03;5016249;28;20225;-82
2023/05/05 10:46:42;;;;;;;9.13;8.43;;;;;;;17.20;65.46;100946.34;5019242;28;20280;-83
2023/05/05 10:49:17;;;;;;;10.93;9.43;;;;;;;17.20;64.33;100964.81;5019795;28;20206;-83
2023/05/05 10:51:49;;;;;;;9.53;8.73;;;;;;;17.17;63.71;100975.50;5019585;28;20210;-83
2023/05/05 10:54:22;;;;;;;10.00;8.70;;;;;;;17.07;63.09;100995.25;5019479;28;20233;-82
2023/05/05 10:56:49;;;;;;;9.17;8.23;;;;;;;17.01;63.23;101003.38;5020623;28;20203;-82
2023/05/05 10:59:42;;;;;;;9.53;8.73;;;;;;;16.92;63.33;101014.25;5020053;28;20211;-82
2023/05/05 11:02:19;;;;;;;9.50;8.80;;;;;;;16.79;64.45;101017.31;5019853;28;20226;-81
2023/05/05 11:05:04;;;;;;;9.63;8.83;;;;;;;16.75;65.36;100978.78;5019862;28;20207;-82
2023/05/05 11:07:32;;;;;;;10.27;8.93;;;;;;;16.75;66.78;100936.59;5019506;28;20227;-80
2023/05/05 11:10:01;;;;;;;10.87;9.47;;;;;;;16.70;69.02;100867.34;5018382;28;20203;-82
2023/05/05 11:12:27;;;;;;;9.90;9.13;;;;;;;16.67;69.84;100820.03;5019062;28;20286;-83
2023/05/05 11:15:30;;;;;;;10.67;9.87;;;;;;;16.66;69.77;100771.72;5019371;28;20234;-80
2023/05/05 11:17:58;;;;;;;10.83;9.83;;;;;;;16.66;70.41;100747.13;5017715;28;20687;-82
2023/05/05 11:20:59;;;;;;;10.37;9.27;;;;;;;16.68;69.89;100737.41;5017763;28;20199;-82
2023/05/05 11:23:26;;;;;;;9.47;8.47;;;;;;;16.68;69.19;100756.69;5017762;28;20231;-82
2023/05/05 11:25:53;;;;;;;9.50;8.67;;;;;;;16.72;69.78;100761.84;5018977;28;20230;-82
2023/05/05 11:28:23;;;;;;;9.37;8.53;;;;;;;16.76;69.81;100766.09;5018203;28;20227;-83
2023/05/05 11:31:16;;;;;;;11.40;9.50;;;;;;;16.82;71.08;100742.16;5018318;28;20206;-83
2023/05/05 11:33:44;;;;;;;10.07;9.10;;;;;;;16.88;70.55;100742.75;5018460;28;20782;-82